Time;durP1;ratioP1;P1;durP2;ratioP2;P2;SDS_P1;SDS_P2;PMS_P1;PMS_P2;Temp;Humidity;BMP_temperature;BMP_pressure;BME280_temperature;BME280_humidity;BME280_pressure;Samples;Min_cycle;Max_cycle;Signal;HPM_P1;HPM_P2
2023/09/22 00:00:18;;;;;;;12.70;4.70;;;;;;;18.93;100.00;98956.41;5012883;28;20044;-84
2023/09/22 00:02:45;;;;;;;9.07;4.50;;;;;;;18.95;100.00;98955.84;5012754;28;20034;-85
2023/09/22 00:05:16;;;;;;;9.30;4.45;;;;;;;18.95;100.00;98950.03;4994986;28;20463;-85
2023/09/22 00:07:46;;;;;;;8.02;4.53;;;;;;;18.87;100.00;98950.06;5012942;28;20615;-86
2023/09/22 00:10:13;;;;;;;7.65;4.40;;;;;;;18.95;100.00;98955.84;5011911;28;20057;-86
2023/09/22 00:12:40;;;;;;;16.73;4.90;;;;;;;18.94;100.00;98954.28;5013739;28;20489;-84
2023/09/22 00:15:10;;;;;;;6.65;4.20;;;;;;;18.94;100.00;98955.06;5015036;28;20041;-85
2023/09/22 00:17:38;;;;;;;10.20;5.30;;;;;;;18.91;100.00;98949.69;5016761;28;20026;-85
2023/09/22 00:20:08;;;;;;;11.10;4.90;;;;;;;18.76;100.00;98932.38;5014483;28;20021;-83
2023/09/22 00:22:33;;;;;;;9.63;4.57;;;;;;;18.90;100.00;98948.13;5014475;28;20029;-83
2023/09/22 00:25:00;;;;;;;7.18;5.03;;;;;;;18.88;100.00;98940.03;5016028;28;20092;-83
2023/09/22 00:27:28;;;;;;;12.70;4.18;;;;;;;18.89;100.00;98941.56;5014438;28;20450;-84
2023/09/22 00:29:53;;;;;;;13.18;4.72;;;;;;;18.88;100.00;98945.81;5015298;28;20053;-84
2023/09/22 00:32:19;;;;;;;11.65;4.20;;;;;;;18.85;100.00;98941.19;5014591;28;20088;-84
2023/09/22 00:34:47;;;;;;;10.05;4.60;;;;;;;18.84;100.00;98938.88;5014739;28;20455;-85
2023/09/22 00:37:14;;;;;;;4.75;4.05;;;;;;;18.78;100.00;98933.31;5015693;28;20476;-84
2023/09/22 00:39:40;;;;;;;7.35;5.15;;;;;;;18.78;100.00;98942.00;5014484;28;20471;-84
2023/09/22 00:42:09;;;;;;;14.48;5.90;;;;;;;18.76;100.00;98944.72;5016461;28;20028;-85
2023/09/22 00:44:39;;;;;;;8.93;4.57;;;;;;;18.75;100.00;98945.28;5014143;28;20041;-86
2023/09/22 00:47:14;;;;;;;9.02;4.22;;;;;;;18.71;100.00;98942.03;5016370;28;20360;-85
2023/09/22 00:49:42;;;;;;;8.13;4.63;;;;;;;18.72;100.00;98949.34;5016727;28;20049;-83
2023/09/22 00:52:08;;;;;;;7.20;4.55;;;;;;;18.71;100.00;98944.91;5015143;28;20045;-85
2023/09/22 00:54:34;;;;;;;11.57;4.72;;;;;;;18.67;100.00;98948.97;5013715;28;20046;-83
2023/09/22 00:57:00;;;;;;;7.13;4.30;;;;;;;18.64;100.00;98952.25;4997432;28;20439;-84
2023/09/22 00:59:26;;;;;;;6.13;4.25;;;;;;;18.65;100.00;98956.69;5014198;28;20033;-85
2023/09/22 01:01:54;;;;;;;9.15;4.65;;;;;;;18.53;100.00;98944.75;5015130;28;20383;-86
2023/09/22 01:04:21;;;;;;;7.93;5.25;;;;;;;18.60;100.00;98955.56;5021359;28;20024;-86
2023/09/22 01:06:54;;;;;;;13.15;5.30;;;;;;;18.57;100.00;98948.03;5022169;28;20040;-84
2023/09/22 01:09:20;;;;;;;11.27;5.10;;;;;;;18.55;100.00;98942.06;5038061;28;20018;-83
2023/09/22 01:11:46;;;;;;;7.82;4.63;;;;;;;18.55;100.00;98955.75;5039055;28;20030;-85
2023/09/22 01:14:12;;;;;;;7.60;4.28;;;;;;;18.55;100.00;98944.19;5028420;28;20517;-85
2023/09/22 01:16:39;;;;;;;8.65;5.45;;;;;;;18.53;100.00;98943.97;5015031;28;20460;-85
2023/09/22 01:19:17;;;;;;;14.45;5.90;;;;;;;18.49;100.00;98952.28;5015479;28;20034;-86
2023/09/22 01:21:48;;;;;;;8.05;4.80;;;;;;;18.46;100.00;98954.22;5015597;28;20026;-87
2023/09/22 01:24:15;;;;;;;10.20;4.50;;;;;;;18.42;100.00;98950.97;5015152;28;20030;-85
2023/09/22 01:26:42;;;;;;;13.90;5.97;;;;;;;18.41;100.00;98948.66;5015944;28;20037;-86
2023/09/22 01:29:20;;;;;;;9.43;4.85;;;;;;;18.39;100.00;98936.88;5015713;28;20116;-86
2023/09/22 01:31:48;;;;;;;11.52;6.18;;;;;;;18.38;100.00;98939.00;4998043;28;20038;-87
2023/09/22 01:34:15;;;;;;;9.18;5.03;;;;;;;18.37;100.00;98943.25;5015997;28;20491;-87
2023/09/22 01:36:42;;;;;;;9.25;5.53;;;;;;;18.38;100.00;98938.22;5015449;28;20030;-87
2023/09/22 01:39:11;;;;;;;12.63;5.30;;;;;;;18.37;100.00;98934.59;5014899;28;20022;-85
2023/09/22 01:41:38;;;;;;;6.95;4.07;;;;;;;18.34;100.00;98934.97;5016136;28;20017;-86
2023/09/22 01:44:04;;;;;;;6.28;4.75;;;;;;;18.37;100.00;98922.25;5015590;28;20435;-86
2023/09/22 01:46:29;;;;;;;13.15;5.03;;;;;;;18.36;100.00;98941.72;5016373;28;20061;-86
2023/09/22 01:48:56;;;;;;;13.85;5.05;;;;;;;18.31;100.00;98939.78;5016562;28;20049;-86
2023/09/22 01:51:23;;;;;;;9.60;4.53;;;;;;;18.33;100.00;98942.09;5015910;28;20423;-85
2023/09/22 01:53:50;;;;;;;8.15;5.03;;;;;;;18.29;100.00;98948.25;5015811;28;20028;-85
2023/09/22 01:56:16;;;;;;;10.00;5.15;;;;;;;18.20;100.00;98923.56;5015371;28;20029;-86
2023/09/22 01:58:42;;;;;;;6.70;4.53;;;;;;;18.26;100.00;98934.94;5018312;28;20018;-87
2023/09/22 02:01:08;;;;;;;8.43;5.32;;;;;;;18.20;100.00;98935.16;5020007;28;20022;-85
2023/09/22 02:03:34;;;;;;;6.88;4.95;;;;;;;18.21;100.00;98938.81;5021544;28;20052;-85
2023/09/22 02:06:03;;;;;;;8.13;4.55;;;;;;;18.18;100.00;98931.28;5020129;28;20041;-86
2023/09/22 02:08:32;;;;;;;9.07;4.75;;;;;;;18.06;100.00;98913.56;5014260;28;20049;-87
2023/09/22 02:10:58;;;;;;;11.20;5.25;;;;;;;18.11;100.00;98926.28;5013646;28;20377;-86
2023/09/22 02:13:25;;;;;;;8.82;4.63;;;;;;;18.14;100.00;98936.69;5015262;28;20033;-86
2023/09/22 02:15:52;;;;;;;11.23;5.15;;;;;;;18.12;100.00;98943.06;5015636;28;20036;-86
2023/09/22 02:18:20;;;;;;;12.82;5.13;;;;;;;18.09;100.00;98926.09;5015039;28;20057;-86
2023/09/22 02:20:48;;;;;;;10.40;4.82;;;;;;;18.11;100.00;98940.75;5015902;28;20057;-86
2023/09/22 02:23:13;;;;;;;9.57;4.63;;;;;;;18.09;100.00;98937.66;5013805;28;20061;-86
2023/09/22 02:25:39;;;;;;;9.32;4.70;;;;;;;18.06;100.00;98936.69;5013650;28;20068;-86
2023/09/22 02:28:15;;;;;;;6.80;4.38;;;;;;;18.07;100.00;98938.25;5015037;28;20036;-86
2023/09/22 02:30:54;;;;;;;14.43;5.55;;;;;;;18.06;100.00;98935.94;5014866;28;20037;-86
2023/09/22 02:33:21;;;;;;;9.27;5.18;;;;;;;18.04;100.00;98941.50;5014399;28;20082;-86
2023/09/22 02:35:47;;;;;;;7.95;4.85;;;;;;;18.01;100.00;98931.09;5014684;28;20041;-85
2023/09/22 02:38:14;;;;;;;9.55;4.85;;;;;;;17.99;100.00;98940.34;4997252;28;20025;-86
2023/09/22 02:40:39;;;;;;;12.35;4.72;;;;;;;17.96;100.00;98941.53;5011338;28;20040;-85
2023/09/22 02:43:07;;;;;;;10.63;5.25;;;;;;;17.92;100.00;98931.69;5013660;28;20030;-85
2023/09/22 02:45:38;;;;;;;13.02;4.75;;;;;;;17.94;100.00;98941.31;5015059;28;20084;-86
2023/09/22 02:48:06;;;;;;;6.82;4.35;;;;;;;17.90;100.00;98945.94;5010714;28;20487;-86
2023/09/22 02:50:32;;;;;;;8.70;5.07;;;;;;;17.88;100.00;98942.88;5013147;28;20383;-88
2023/09/22 02:53:03;;;;;;;11.35;5.07;;;;;;;17.86;100.00;98943.44;5015030;28;20052;-87
2023/09/22 02:55:31;;;;;;;11.05;4.55;;;;;;;17.78;100.00;98939.78;5015201;28;20033;-86
2023/09/22 02:57:58;;;;;;;11.13;5.05;;;;;;;17.80;100.00;98939.97;5015044;28;20030;-86
2023/09/22 03:00:24;;;;;;;8.07;4.63;;;;;;;17.77;100.00;98956.34;5015160;28;20025;-85
2023/09/22 03:03:05;;;;;;;5.93;3.80;;;;;;;17.74;100.00;98945.94;5015053;28;20022;-85
2023/09/22 03:05:31;;;;;;;7.85;4.93;;;;;;;17.71;100.00;98940.53;5013437;28;20033;-86
2023/09/22 03:07:58;;;;;;;12.38;5.40;;;;;;;17.68;100.00;98941.69;5013601;28;20117;-85
2023/09/22 03:10:25;;;;;;;7.70;4.93;;;;;;;17.67;100.00;98938.03;5014896;28;20025;-85
2023/09/22 03:12:53;;;;;;;12.52;5.40;;;;;;;17.71;100.00;98947.09;5014692;28;20010;-85
2023/09/22 03:15:18;;;;;;;6.53;4.88;;;;;;;17.70;100.00;98944.75;4997427;28;20034;-84
2023/09/22 03:17:44;;;;;;;11.98;5.03;;;;;;;17.70;100.00;98939.75;5013767;28;20407;-85
2023/09/22 03:20:12;;;;;;;8.30;5.05;;;;;;;17.65;100.00;98940.72;5018202;28;20026;-84
2023/09/22 03:22:38;;;;;;;6.65;4.68;;;;;;;17.66;100.00;98947.28;5023678;28;20029;-84
2023/09/22 03:25:05;;;;;;;9.23;4.75;;;;;;;17.65;100.00;98949.38;5023639;28;20026;-84
2023/09/22 03:27:34;;;;;;;6.40;4.55;;;;;;;17.65;100.00;98954.38;5006330;28;20061;-84
2023/09/22 03:30:02;;;;;;;9.15;5.07;;;;;;;17.66;100.00;98965.38;5024050;28;20188;-86
2023/09/22 03:32:29;;;;;;;10.30;5.60;;;;;;;17.67;100.00;98964.03;5023768;28;20133;-84
2023/09/22 03:34:57;;;;;;;13.98;5.35;;;;;;;17.63;100.00;98963.66;5024222;28;20037;-84
2023/09/22 03:37:29;;;;;;;11.75;6.57;;;;;;;17.65;100.00;98951.50;5022634;28;20076;-85
2023/09/22 03:40:09;;;;;;;11.18;5.35;;;;;;;17.61;100.00;98945.34;5022600;28;20045;-83
2023/09/22 03:42:36;;;;;;;12.32;5.05;;;;;;;17.62;100.00;98955.56;5020673;28;20100;-84
2023/09/22 03:45:03;;;;;;;11.07;5.55;;;;;;;17.58;100.00;98953.06;5020654;28;20029;-86
2023/09/22 03:47:32;;;;;;;10.60;5.43;;;;;;;17.55;100.00;98950.50;5022378;28;20018;-86
2023/09/22 03:49:58;;;;;;;7.60;5.65;;;;;;;17.51;100.00;98953.00;5023949;28;20026;-85
2023/09/22 03:52:39;;;;;;;11.25;5.72;;;;;;;17.48;100.00;98948.41;5018491;28;20029;-86
2023/09/22 03:55:05;;;;;;;8.18;5.35;;;;;;;17.42;100.00;98942.78;5016285;28;20475;-85
2023/09/22 03:57:31;;;;;;;9.77;5.03;;;;;;;17.41;100.00;98961.44;5017486;28;20029;-85
2023/09/22 03:59:57;;;;;;;10.57;5.97;;;;;;;17.43;100.00;98955.88;5016544;28;20030;-85
2023/09/22 04:02:22;;;;;;;14.43;5.82;;;;;;;17.40;100.00;98948.34;5017798;28;20032;-85
2023/09/22 04:04:47;;;;;;;9.43;5.63;;;;;;;17.38;100.00;98959.72;5018620;28;20438;-86
2023/09/22 04:07:14;;;;;;;16.35;6.30;;;;;;;17.35;100.00;98943.50;5018272;28;20419;-86
2023/09/22 04:09:41;;;;;;;12.85;5.40;;;;;;;17.37;100.00;98947.38;5017226;28;20067;-85
2023/09/22 04:12:09;;;;;;;13.25;6.07;;;;;;;17.37;100.00;98949.50;5019676;28;20030;-86
2023/09/22 04:14:35;;;;;;;9.82;5.43;;;;;;;17.33;100.00;98928.88;5041481;28;20017;-85
2023/09/22 04:17:04;;;;;;;11.32;6.85;;;;;;;17.33;100.00;98934.66;5040216;28;20026;-83
2023/09/22 04:19:33;;;;;;;17.65;5.45;;;;;;;17.33;100.00;98940.44;5024647;28;20144;-84
2023/09/22 04:22:01;;;;;;;13.20;5.78;;;;;;;17.33;100.00;98949.09;5017747;28;20033;-84
2023/09/22 04:24:36;;;;;;;11.80;5.72;;;;;;;17.34;100.00;98950.63;5017028;28;20034;-85
2023/09/22 04:27:16;;;;;;;10.40;6.38;;;;;;;17.20;100.00;98944.25;5016834;28;20061;-89
2023/09/22 04:29:42;;;;;;;9.77;5.57;;;;;;;17.34;100.00;98968.72;5017128;28;20096;-87
2023/09/22 04:32:09;;;;;;;12.25;5.43;;;;;;;17.30;100.00;98965.44;5015235;28;20061;-88
2023/09/22 04:34:35;;;;;;;9.43;5.10;;;;;;;17.41;100.00;98981.66;5015659;28;20044;-86
2023/09/22 04:37:04;;;;;;;11.13;6.38;;;;;;;17.47;100.00;98981.50;5015871;28;20040;-89
2023/09/22 04:39:35;;;;;;;10.15;5.57;;;;;;;17.46;100.00;98972.06;5014354;28;20527;-87
2023/09/22 04:42:01;;;;;;;12.40;5.65;;;;;;;17.55;100.00;98988.84;5017469;28;20029;-87
2023/09/22 04:44:27;;;;;;;8.70;5.80;;;;;;;17.56;100.00;98989.63;5016507;28;20467;-86
2023/09/22 04:47:01;;;;;;;12.15;5.15;;;;;;;17.59;100.00;98988.47;5019712;28;20075;-86
2023/09/22 04:49:27;;;;;;;9.55;5.47;;;;;;;17.70;100.00;99009.09;5019768;28;20026;-89
2023/09/22 04:51:54;;;;;;;8.77;5.75;;;;;;;17.76;100.00;99012.59;5021786;28;20454;-84
2023/09/22 04:54:22;;;;;;;10.15;5.20;;;;;;;17.74;100.00;99002.94;5018957;28;20026;-88
2023/09/22 04:56:48;;;;;;;11.48;5.55;;;;;;;17.82;100.00;99001.63;5017233;28;20061;-85
2023/09/22 04:59:18;;;;;;;12.27;5.82;;;;;;;17.88;100.00;98998.56;5015724;28;20036;-86
2023/09/22 05:01:45;;;;;;;24.58;7.57;;;;;;;17.93;100.00;99014.91;5016826;28;20036;-84
2023/09/22 05:04:12;;;;;;;11.68;5.80;;;;;;;17.96;100.00;99024.56;5012187;28;20445;-83
2023/09/22 05:06:54;;;;;;;12.45;5.93;;;;;;;18.04;100.00;99042.69;5014600;28;20030;-85
2023/09/22 05:09:24;;;;;;;10.18;5.90;;;;;;;18.01;100.00;99046.75;5017019;28;20034;-84
2023/09/22 05:11:51;;;;;;;14.77;6.55;;;;;;;18.14;100.00;99063.91;5014904;28;20403;-84
2023/09/22 05:14:17;;;;;;;15.32;5.93;;;;;;;18.22;100.00;99064.72;5016150;28;20057;-82
2023/09/22 05:16:45;;;;;;;14.38;5.97;;;;;;;18.31;100.00;99060.50;5016418;28;20030;-83
2023/09/22 05:19:11;;;;;;;11.18;5.82;;;;;;;18.40;100.00;99057.78;4998927;28;20030;-82
2023/09/22 05:21:38;;;;;;;8.73;4.93;;;;;;;18.52;100.00;99046.63;5014849;28;20033;-84
2023/09/22 05:24:06;;;;;;;14.00;5.60;;;;;;;18.60;100.00;99027.91;5015424;28;20042;-82
2023/09/22 05:26:31;;;;;;;9.07;4.63;;;;;;;18.62;100.00;99033.84;5013563;28;20087;-79
2023/09/22 05:29:21;;;;;;;12.32;4.72;;;;;;;18.62;100.00;99038.91;5011780;28;20065;-84
2023/09/22 05:31:49;;;;;;;9.20;4.80;;;;;;;18.65;100.00;99044.28;5019063;28;20093;-80
2023/09/22 05:34:15;;;;;;;8.57;4.72;;;;;;;18.69;100.00;99044.66;5014706;28;20030;-78
2023/09/22 05:36:49;;;;;;;12.48;4.90;;;;;;;18.68;100.00;99027.88;4996829;28;20465;-78
2023/09/22 05:39:15;;;;;;;9.82;5.10;;;;;;;18.75;100.00;99043.69;5023601;28;20037;-79
2023/09/22 05:41:44;;;;;;;13.13;5.50;;;;;;;18.75;100.00;99037.91;5034033;28;20048;-79
2023/09/22 05:44:12;;;;;;;8.70;4.10;;;;;;;18.75;100.00;99035.78;5034218;28;20474;-78
2023/09/22 05:46:39;;;;;;;8.90;5.25;;;;;;;18.75;100.00;99035.00;5031196;28;20033;-81
2023/09/22 05:49:06;;;;;;;8.43;5.22;;;;;;;18.76;100.00;99048.13;5035529;28;20360;-78
2023/09/22 05:51:34;;;;;;;10.07;3.95;;;;;;;18.75;100.00;99035.00;5036077;28;20022;-78
2023/09/22 05:54:00;;;;;;;9.73;4.00;;;;;;;18.86;100.00;99038.28;5036213;28;20082;-80
2023/09/22 05:56:26;;;;;;;10.43;4.50;;;;;;;18.96;100.00;99044.25;5035820;28;20037;-77
2023/09/22 05:58:53;;;;;;;8.80;4.35;;;;;;;19.00;100.00;99041.72;5035198;28;20045;-79
2023/09/22 06:01:18;;;;;;;7.85;4.07;;;;;;;19.04;100.00;99047.88;5035605;28;20049;-79
2023/09/22 06:03:47;;;;;;;12.18;4.35;;;;;;;19.14;100.00;99063.31;5035061;28;20128;-79
2023/09/22 06:06:15;;;;;;;9.95;4.63;;;;;;;19.21;100.00;99062.56;5035038;28;20101;-79
2023/09/22 06:08:44;;;;;;;8.40;4.82;;;;;;;19.25;100.00;99065.81;5036682;28;20068;-79
2023/09/22 06:11:17;;;;;;;8.48;3.88;;;;;;;19.36;100.00;99067.53;5040749;28;20090;-80
2023/09/22 06:13:42;;;;;;;5.57;3.70;;;;;;;19.45;100.00;99067.69;5022837;28;20136;-81
2023/09/22 06:16:18;;;;;;;7.07;3.92;;;;;;;19.56;100.00;99072.25;5026751;28;20040;-81
2023/09/22 06:18:51;;;;;;;12.48;3.47;;;;;;;19.68;100.00;99073.38;5024271;28;20034;-80
2023/09/22 06:21:16;;;;;;;10.70;4.20;;;;;;;19.82;100.00;99086.25;5016458;28;20029;-81
2023/09/22 06:23:44;;;;;;;9.15;4.18;;;;;;;20.03;100.00;99088.88;5016888;28;20053;-81
2023/09/22 06:26:12;;;;;;;6.70;4.93;;;;;;;20.34;100.00;99077.84;5017243;28;20140;-83
2023/09/22 06:28:39;;;;;;;11.73;4.95;;;;;;;21.05;100.00;99090.59;5020538;28;20219;-85
2023/09/22 06:31:11;;;;;;;11.90;4.57;;;;;;;21.60;100.00;99089.44;5017659;28;20038;-81
2023/09/22 06:33:39;;;;;;;9.95;3.70;;;;;;;21.76;100.00;99079.16;4999923;28;20440;-85
2023/09/22 06:36:05;;;;;;;7.88;4.18;;;;;;;22.17;100.00;99097.06;4997599;28;20030;-79
2023/09/22 06:38:35;;;;;;;12.80;6.85;;;;;;;22.41;100.00;99105.63;4996511;28;20030;-81
2023/09/22 06:41:04;;;;;;;9.73;4.15;;;;;;;22.52;100.00;99116.69;4997807;28;20027;-80
2023/09/22 06:43:36;;;;;;;5.88;3.60;;;;;;;22.56;100.00;99110.44;4978107;28;20040;-80
2023/09/22 06:46:06;;;;;;;4.90;3.33;;;;;;;22.67;100.00;99123.66;4978340;28;20034;-85
2023/09/22 06:48:31;;;;;;;10.05;3.72;;;;;;;22.69;100.00;99121.66;4995583;28;20035;-82
2023/09/22 06:51:00;;;;;;;9.48;3.65;;;;;;;22.69;100.00;99127.50;4996974;28;20405;-82
2023/09/22 06:53:43;;;;;;;7.50;3.50;;;;;;;22.64;100.00;99134.38;4999334;28;20101;-79
2023/09/22 06:56:11;;;;;;;8.23;4.05;;;;;;;22.67;100.00;99126.56;4996905;28;20122;-78
2023/09/22 06:58:40;;;;;;;33.33;4.82;;;;;;;22.91;100.00;99129.28;4994991;28;20049;-76
2023/09/22 07:01:26;;;;;;;7.80;3.25;;;;;;;23.32;100.00;99123.69;4977777;28;20037;-78
2023/09/22 07:03:52;;;;;;;8.25;3.65;;;;;;;23.89;100.00;99131.75;4991418;28;20046;-77
2023/09/22 07:06:20;;;;;;;8.35;3.45;;;;;;;24.27;100.00;99130.16;4995741;28;20034;-78
2023/09/22 07:08:47;;;;;;;10.10;3.35;;;;;;;24.41;100.00;99110.75;4998424;28;20079;-81
2023/09/22 07:11:18;;;;;;;7.97;3.55;;;;;;;24.55;100.00;99103.00;5000978;28;20026;-79
2023/09/22 07:13:46;;;;;;;14.45;3.78;;;;;;;24.75;100.00;99100.78;4998895;28;20019;-80
2023/09/22 07:16:12;;;;;;;8.10;2.90;;;;;;;25.12;100.00;99119.53;4993423;28;20157;-79
2023/09/22 07:18:39;;;;;;;9.85;3.30;;;;;;;25.49;100.00;99126.53;4994219;28;20097;-78
2023/09/22 07:21:09;;;;;;;12.50;3.10;;;;;;;25.87;100.00;99110.06;4994160;28;20046;-78
2023/09/22 07:23:35;;;;;;;9.57;3.70;;;;;;;26.33;100.00;99110.25;4977348;28;20046;-78
2023/09/22 07:26:11;;;;;;;7.05;3.50;;;;;;;26.72;100.00;99127.38;4994092;28;20022;-78
2023/09/22 07:28:37;;;;;;;7.07;2.50;;;;;;;26.99;100.00;99123.97;4994191;28;20022;-78
2023/09/22 07:31:30;;;;;;;11.20;3.05;;;;;;;27.25;100.00;99127.78;4994360;28;20030;-77
2023/09/22 07:33:57;;;;;;;9.20;2.78;;;;;;;27.52;100.00;99128.75;4998581;28;20041;-79
2023/09/22 07:36:23;;;;;;;6.40;3.85;;;;;;;27.76;100.00;99134.56;5012954;28;20026;-81
2023/09/22 07:38:51;;;;;;;13.95;4.55;;;;;;;27.97;100.00;99135.16;5014793;28;20119;-79
2023/09/22 07:41:19;;;;;;;11.00;3.13;;;;;;;28.16;100.00;99131.09;5014435;28;20095;-79
2023/09/22 07:43:44;;;;;;;9.98;2.72;;;;;;;28.39;100.00;99139.78;5012867;28;20041;-78
2023/09/22 07:46:11;;;;;;;6.18;2.55;;;;;;;28.45;100.00;99148.19;5011544;28;20549;-79
2023/09/22 07:48:37;;;;;;;4.93;2.40;;;;;;;28.39;100.00;99122.16;5014646;28;20080;-79
2023/09/22 07:51:19;;;;;;;12.40;3.25;;;;;;;28.28;100.00;99119.31;5013719;28;20454;-79
2023/09/22 07:53:54;;;;;;;7.38;2.65;;;;;;;28.11;100.00;99119.75;5014874;28;20026;-79
2023/09/22 07:56:20;;;;;;;7.60;2.67;;;;;;;27.98;100.00;99113.19;5014459;28;20444;-79
2023/09/22 07:58:47;;;;;;;4.63;2.38;;;;;;;27.85;100.00;99104.28;5014686;28;20104;-79
2023/09/22 08:01:18;;;;;;;5.18;2.20;;;;;;;27.77;100.00;99109.66;5017574;28;20026;-76
2023/09/22 08:03:45;;;;;;;6.35;2.83;;;;;;;27.71;100.00;99123.97;5014748;28;20053;-77
2023/09/22 08:06:19;;;;;;;10.60;2.67;;;;;;;27.69;100.00;99120.94;5016978;28;20025;-79
2023/09/22 08:08:49;;;;;;;7.85;3.00;;;;;;;27.75;100.00;99109.56;5015883;28;20026;-77
2023/09/22 08:11:36;;;;;;;7.80;2.42;;;;;;;27.96;100.00;99116.00;5016584;28;20030;-77
2023/09/22 08:14:03;;;;;;;9.10;3.67;;;;;;;28.14;100.00;99122.19;5020425;28;20037;-76
2023/09/22 08:16:29;;;;;;;8.00;2.90;;;;;;;28.29;100.00;99126.72;5023969;28;20467;-80
2023/09/22 08:18:54;;;;;;;11.85;2.55;;;;;;;28.33;100.00;99118.13;5019138;28;20098;-77
2023/09/22 08:21:25;;;;;;;4.43;2.10;;;;;;;28.37;100.00;99118.34;5020688;28;20038;-75
2023/09/22 08:24:11;;;;;;;12.35;4.28;;;;;;;28.41;100.00;99127.38;5026775;28;20030;-77
2023/09/22 08:26:41;;;;;;;6.20;2.63;;;;;;;28.39;100.00;99136.84;5021548;28;20361;-77
2023/09/22 08:29:09;;;;;;;5.57;2.03;;;;;;;28.42;100.00;99131.88;5018918;28;20018;-76
2023/09/22 08:31:35;;;;;;;4.25;1.77;;;;;;;28.49;100.00;99119.06;5015365;28;20038;-77
2023/09/22 08:34:02;;;;;;;11.20;4.38;;;;;;;28.51;100.00;99115.47;5021537;28;20033;-77
2023/09/22 08:36:27;;;;;;;7.90;2.30;;;;;;;28.58;100.00;99141.63;5032388;28;20036;-79
2023/09/22 08:38:58;;;;;;;9.60;2.20;;;;;;;28.54;100.00;99131.81;5034428;28;20034;-79
2023/09/22 08:41:31;;;;;;;3.65;1.70;;;;;;;28.51;100.00;99145.63;5036075;28;20022;-79
2023/09/22 08:43:57;;;;;;;7.15;1.98;;;;;;;28.36;100.00;99131.50;5019700;28;20077;-80
2023/09/22 08:46:24;;;;;;;4.40;1.80;;;;;;;28.24;100.00;99124.94;5019741;28;20033;-80
2023/09/22 08:48:51;;;;;;;5.20;2.00;;;;;;;28.25;100.00;99126.44;5036826;28;20049;-81
2023/09/22 08:51:19;;;;;;;6.68;1.77;;;;;;;28.25;100.00;99130.16;5036327;28;20033;-79
2023/09/22 08:53:59;;;;;;;11.02;2.15;;;;;;;28.24;100.00;99134.53;5031245;28;20034;-77
2023/09/22 08:56:40;;;;;;;;;;;;;;;28.02;100.00;99147.91;5028511;28;20026;-79
2023/09/22 08:59:09;;;;;;;10.48;2.38;;;;;;;27.69;100.00;99159.88;5026126;28;19916;-78
2023/09/22 09:01:36;;;;;;;5.95;1.80;;;;;;;27.39;100.00;99166.81;5008225;28;20033;-78
2023/09/22 09:04:41;;;;;;;6.93;2.20;;;;;;;27.09;100.00;99160.56;5023641;28;20064;-75
2023/09/22 09:07:06;;;;;;;4.43;2.10;;;;;;;26.77;100.00;99162.19;5024309;28;20053;-79
2023/09/22 09:09:44;;;;;;;5.28;1.60;;;;;;;26.66;100.00;99154.16;5022110;28;20014;-81
2023/09/22 09:12:12;;;;;;;8.20;2.50;;;;;;;26.66;100.00;99159.25;5023313;28;20034;-77
2023/09/22 09:14:43;;;;;;;5.20;1.77;;;;;;;26.68;100.00;99171.84;5026543;28;20025;-77
2023/09/22 09:17:20;;;;;;;5.10;1.20;;;;;;;26.49;100.00;99171.28;5029356;28;20030;-76
2023/09/22 09:19:54;;;;;;;5.68;1.85;;;;;;;26.30;100.00;99181.06;5029104;28;20049;-76
2023/09/22 09:22:21;;;;;;;2.38;1.80;;;;;;;26.06;100.00;99188.19;5028466;28;20034;-74
2023/09/22 09:24:46;;;;;;;5.45;1.95;;;;;;;25.88;100.00;99187.72;5029215;28;20040;-79
2023/09/22 09:27:24;;;;;;;9.73;2.28;;;;;;;25.72;100.00;99180.75;5025513;28;20097;-79
2023/09/22 09:29:57;;;;;;;5.85;1.85;;;;;;;25.58;100.00;99185.66;5022621;28;20051;-77
2023/09/22 09:32:30;;;;;;;2.85;1.55;;;;;;;25.38;100.00;99190.81;5028376;28;20088;-77
2023/09/22 09:34:58;;;;;;;5.03;1.65;;;;;;;25.13;100.00;99196.34;5030016;28;20025;-79
2023/09/22 09:37:26;;;;;;;2.42;1.25;;;;;;;24.98;100.00;99189.50;5032123;28;20036;-79
2023/09/22 09:40:01;;;;;;;3.95;1.35;;;;;;;24.89;100.00;99190.28;5031143;28;20034;-79
2023/09/22 09:42:26;;;;;;;2.15;1.30;;;;;;;24.83;100.00;99186.13;5027623;28;20049;-80
2023/09/22 09:44:54;;;;;;;9.07;1.17;;;;;;;24.83;100.00;99189.81;5023426;28;20034;-82
2023/09/22 09:47:32;;;;;;;5.80;1.52;;;;;;;24.88;100.00;99190.91;5027285;28;20152;-80
2023/09/22 09:49:59;;;;;;;2.25;1.00;;;;;;;25.03;100.00;99197.16;5006177;28;20038;-80
2023/09/22 09:52:43;;;;;;;3.85;1.40;;;;;;;25.24;100.00;99186.88;5011756;28;20026;-81
2023/09/22 09:55:14;;;;;;;5.25;1.58;;;;;;;25.44;100.00;99192.00;5023731;28;20034;-79
2023/09/22 09:57:58;;;;;;;5.90;2.38;;;;;;;25.52;100.00;99186.00;5030802;28;20021;-78
2023/09/22 10:00:26;;;;;;;1.67;1.20;;;;;;;25.49;100.00;99176.28;4994666;28;20033;-81
2023/09/22 10:02:57;;;;;;;5.25;1.40;;;;;;;25.47;100.00;99178.28;5031522;28;20048;-79
2023/09/22 10:05:23;;;;;;;5.88;1.45;;;;;;;25.54;100.00;99176.56;5031009;28;20029;-80
2023/09/22 10:07:58;;;;;;;6.82;1.52;;;;;;;25.71;100.00;99174.16;5032145;28;20022;-80
2023/09/22 10:10:26;;;;;;;2.20;1.50;;;;;;;25.89;100.00;99174.59;5032632;28;20086;-78
2023/09/22 10:12:52;;;;;;;4.30;1.70;;;;;;;26.00;100.00;99170.22;5024969;28;20027;-79
2023/09/22 10:15:49;;;;;;;3.45;1.55;;;;;;;26.34;100.00;99178.38;5039722;28;20106;-79
2023/09/22 10:18:17;;;;;;;2.55;1.02;;;;;;;26.57;100.00;99190.16;5039293;28;20064;-76
2023/09/22 10:20:45;;;;;;;5.18;1.00;;;;;;;26.78;100.00;99183.50;5039689;28;20028;-83
2023/09/22 10:23:24;;;;;;;1.60;1.27;;;;;;;26.89;100.00;99179.03;5024923;28;20042;-79
2023/09/22 10:26:15;;;;;;;6.03;1.17;;;;;;;27.03;100.00;99186.56;5017138;28;20037;-78
2023/09/22 10:28:42;;;;;;;3.50;1.55;;;;;;;27.17;100.00;99184.53;5033178;28;20025;-80
2023/09/22 10:31:09;;;;;;;4.07;1.38;;;;;;;27.29;100.00;99180.84;5016885;28;20033;-78
2023/09/22 10:33:45;;;;;;;3.13;1.27;;;;;;;27.44;100.00;99178.19;5017249;28;20072;-80
2023/09/22 10:36:12;;;;;;;7.70;1.60;;;;;;;27.49;100.00;99182.13;5013468;28;20105;-81
2023/09/22 10:38:55;;;;;;;1.42;1.10;;;;;;;27.55;100.00;99185.44;5017980;28;20036;-82
2023/09/22 10:41:20;;;;;;;1.13;1.02;;;;;;;27.55;100.00;99179.56;5014618;28;20096;-78
2023/09/22 10:43:58;;;;;;;2.42;1.55;;;;;;;27.60;100.00;99196.75;5016477;28;20033;-81
2023/09/22 10:46:25;;;;;;;2.65;1.38;;;;;;;27.59;100.00;99195.25;4996749;28;20110;-81
2023/09/22 10:48:53;;;;;;;5.63;1.58;;;;;;;27.61;100.00;99185.78;4996740;28;20038;-77
2023/09/22 10:51:22;;;;;;;4.13;1.60;;;;;;;27.64;100.00;99199.22;4995431;28;20468;-78
2023/09/22 10:54:04;;;;;;;1.67;0.98;;;;;;;27.68;100.00;99196.50;4993923;28;20031;-79
2023/09/22 10:56:35;;;;;;;2.72;1.10;;;;;;;27.71;100.00;99218.72;4994609;28;20038;-78
2023/09/22 10:59:00;;;;;;;4.22;1.20;;;;;;;27.65;100.00;99214.66;4994322;28;20129;-79
2023/09/22 11:01:28;;;;;;;2.58;1.42;;;;;;;27.35;100.00;99202.56;4996689;28;20444;-83
2023/09/22 11:03:57;;;;;;;3.38;1.33;;;;;;;27.24;100.00;99223.84;4995516;28;20030;-81
2023/09/22 11:06:23;;;;;;;7.45;1.30;;;;;;;27.07;100.00;99210.28;4995192;28;20038;-80
2023/09/22 11:08:52;;;;;;;3.45;1.42;;;;;;;26.86;100.00;99213.34;4996942;28;20117;-78
2023/09/22 11:11:34;;;;;;;1.13;1.00;;;;;;;26.77;100.00;99234.72;4995517;28;20383;-77
2023/09/22 11:14:01;;;;;;;3.80;1.75;;;;;;;26.61;100.00;99213.13;4996054;28;20046;-78
2023/09/22 11:16:29;;;;;;;4.53;1.90;;;;;;;26.54;100.00;99211.97;4995442;28;20392;-79
2023/09/22 11:19:06;;;;;;;2.28;1.70;;;;;;;26.57;100.00;99210.69;4995853;28;20026;-81
2023/09/22 11:21:41;;;;;;;4.78;1.85;;;;;;;26.57;100.00;99215.78;4993713;28;20503;-77
2023/09/22 11:24:08;;;;;;;4.53;2.03;;;;;;;26.61;100.00;99222.69;4994184;28;20034;-81
2023/09/22 11:26:43;;;;;;;4.85;1.98;;;;;;;26.61;100.00;99227.78;4978498;28;20045;-81
2023/09/22 11:29:09;;;;;;;4.15;2.30;;;;;;;26.49;100.00;99216.03;4997397;28;20088;-80
2023/09/22 11:31:48;;;;;;;2.22;1.80;;;;;;;26.48;100.00;99219.56;5000477;28;20049;-78